createdAt,value
2023-05-08T00:02:57.196Z,13.77
2023-05-08T00:05:58.760Z,13.82
2023-05-08T00:09:00.285Z,13.91
2023-05-08T00:12:01.804Z,13.93
2023-05-08T00:15:04.824Z,13.78
2023-05-08T00:18:06.300Z,13.61
2023-05-08T00:21:07.912Z,13.72
2023-05-08T00:24:09.412Z,13.83
2023-05-08T00:27:11.038Z,13.86
2023-05-08T00:30:14.356Z,13.63
2023-05-08T00:33:16.436Z,13.41
2023-05-08T00:36:17.986Z,13.42
2023-05-08T00:39:19.463Z,13.54
2023-05-08T00:42:21.353Z,13.70
2023-05-08T00:45:22.872Z,13.80
2023-05-08T00:48:25.439Z,13.82
2023-05-08T00:51:27.866Z,13.86
2023-05-08T00:54:29.888Z,13.77
2023-05-08T00:57:35.459Z,13.55
2023-05-08T01:00:39.077Z,13.58
2023-05-08T01:03:40.805Z,13.66
2023-05-08T01:06:42.495Z,13.56
2023-05-08T01:09:43.977Z,13.42
2023-05-08T01:13:16.485Z,13.42
2023-05-08T01:16:46.613Z,13.44
2023-05-08T01:20:17.850Z,13.56
2023-05-08T01:23:53.778Z,13.56
2023-05-08T01:27:13.417Z,13.54
2023-05-08T01:30:51.972Z,13.41
2023-05-08T01:34:06.225Z,13.36
2023-05-08T01:37:12.497Z,13.44
2023-05-08T01:40:40.746Z,13.60
2023-05-08T01:43:55.478Z,13.69
2023-05-08T01:46:58.047Z,13.55
2023-05-08T01:50:18.386Z,13.54
2023-05-08T01:53:30.260Z,13.65
2023-05-08T01:56:32.847Z,13.71
2023-05-08T01:59:37.012Z,13.77
2023-05-08T02:02:38.676Z,13.65
2023-05-08T02:05:43.225Z,13.61
2023-05-08T02:08:46.267Z,13.52
2023-05-08T02:11:49.847Z,13.62
2023-05-08T02:14:55.683Z,13.59
2023-05-08T02:17:59.163Z,13.53
2023-05-08T02:21:04.043Z,13.48
2023-05-08T02:24:06.268Z,13.44
2023-05-08T02:27:10.387Z,13.30
2023-05-08T02:30:16.717Z,13.39
2023-05-08T02:33:19.182Z,13.53
2023-05-08T02:36:22.952Z,13.58
2023-05-08T02:39:30.235Z,13.41
2023-05-08T02:42:31.964Z,13.32
2023-05-08T02:45:43.625Z,13.26
2023-05-08T02:48:57.228Z,13.26
2023-05-08T02:52:13.843Z,13.28
2023-05-08T02:55:30.834Z,13.27
2023-05-08T02:58:55.316Z,13.43
2023-05-08T03:02:12.252Z,13.48
2023-05-08T03:05:20.546Z,13.52
2023-05-08T03:08:30.677Z,13.38
2023-05-08T03:11:39.070Z,13.19
2023-05-08T03:14:45.906Z,13.11
2023-05-08T03:17:52.742Z,13.24
2023-05-08T03:20:57.968Z,13.15
2023-05-08T03:24:03.140Z,13.07
2023-05-08T03:27:06.155Z,13.19
2023-05-08T03:30:09.697Z,13.38
2023-05-08T03:33:14.289Z,13.47
2023-05-08T03:36:16.056Z,13.47
2023-05-08T03:39:17.662Z,13.45
2023-05-08T03:42:22.289Z,13.48
2023-05-08T03:45:24.964Z,13.46
2023-05-08T03:48:27.684Z,13.37
2023-05-08T03:51:29.488Z,13.21
2023-05-08T03:54:31.842Z,13.10
2023-05-08T03:57:42.872Z,13.02
2023-05-08T04:01:32.783Z,13.02
2023-05-08T04:04:39.990Z,13.24
2023-05-08T04:07:50.794Z,13.24
2023-05-08T04:11:06.648Z,13.22
2023-05-08T04:14:13.400Z,13.03
2023-05-08T04:17:22.552Z,12.86
2023-05-08T04:20:27.326Z,12.91
2023-05-08T04:23:29.940Z,12.92
2023-05-08T04:26:32.732Z,13.11
2023-05-08T04:29:35.576Z,13.28
2023-05-08T04:32:41.734Z,13.38
2023-05-08T04:35:46.149Z,13.42
2023-05-08T04:38:48.098Z,13.38
2023-05-08T04:41:51.356Z,13.19
2023-05-08T04:44:54.808Z,13.08
2023-05-08T04:47:56.564Z,12.99
2023-05-08T04:50:58.355Z,12.94
2023-05-08T04:54:00.436Z,12.92
2023-05-08T04:57:02.823Z,12.97
2023-05-08T05:00:06.126Z,13.18
2023-05-08T05:03:14.276Z,13.34
2023-05-08T05:06:16.023Z,13.38
2023-05-08T05:09:17.730Z,13.44
2023-05-08T05:12:19.260Z,13.55
2023-05-08T05:15:20.836Z,13.62
2023-05-08T05:18:22.758Z,13.65
2023-05-08T05:21:26.005Z,13.64
2023-05-08T05:24:27.735Z,13.63
2023-05-08T05:27:29.249Z,13.49
2023-05-08T05:30:30.848Z,13.39
2023-05-08T05:33:32.769Z,13.42
2023-05-08T05:36:34.639Z,13.47
2023-05-08T05:39:37.731Z,13.51
2023-05-08T05:42:39.730Z,13.54
2023-05-08T05:45:42.116Z,13.56
2023-05-08T05:48:43.625Z,13.64
2023-05-08T05:51:45.576Z,13.64
2023-05-08T05:54:47.258Z,13.66
2023-05-08T05:57:48.900Z,13.63
2023-05-08T06:00:51.354Z,13.56
2023-05-08T06:03:53.991Z,13.49
2023-05-08T06:06:55.540Z,13.50
2023-05-08T06:09:57.098Z,13.45
2023-05-08T06:12:59.181Z,13.55
2023-05-08T06:16:01.311Z,13.63
2023-05-08T06:19:02.964Z,13.69
2023-05-08T06:22:05.289Z,13.73
2023-05-08T06:25:08.353Z,13.77
2023-05-08T06:28:09.818Z,13.74
2023-05-08T06:31:11.426Z,13.71
2023-05-08T06:34:13.193Z,13.75
2023-05-08T06:37:14.848Z,13.79
2023-05-08T06:40:16.497Z,13.83
2023-05-08T06:43:18.257Z,13.84
2023-05-08T06:46:19.893Z,13.84
2023-05-08T06:49:22.915Z,13.75
2023-05-08T06:52:25.672Z,13.75
2023-05-08T06:55:27.307Z,13.85
2023-05-08T06:58:30.492Z,13.86
2023-05-08T07:01:32.319Z,13.82
2023-05-08T07:04:33.947Z,13.91
2023-05-08T07:07:35.826Z,14.04
2023-05-08T07:10:37.275Z,14.12
2023-05-08T07:13:38.805Z,14.20
2023-05-08T07:16:40.741Z,14.34
2023-05-08T07:19:42.386Z,14.35
2023-05-08T07:22:43.917Z,14.40
2023-05-08T07:25:46.057Z,14.37
2023-05-08T07:28:47.969Z,14.30
2023-05-08T07:31:49.624Z,14.35
2023-05-08T07:34:51.172Z,14.16
2023-05-08T07:37:52.731Z,14.19
2023-05-08T07:40:58.248Z,14.05
2023-05-08T07:43:59.776Z,14.15
2023-05-08T07:47:01.288Z,14.10
2023-05-08T07:50:03.411Z,14.11
2023-05-08T07:53:04.894Z,14.04
2023-05-08T07:56:06.545Z,14.10
2023-05-08T07:59:07.957Z,14.09
2023-05-08T08:02:09.494Z,13.86
2023-05-08T08:05:11.821Z,13.85
2023-05-08T08:08:14.103Z,13.77
2023-05-08T08:11:15.769Z,13.71
2023-05-08T08:14:17.351Z,13.78
2023-05-08T08:17:18.941Z,13.83
2023-05-08T08:20:23.348Z,13.75
2023-05-08T08:23:25.280Z,13.85
2023-05-08T08:26:26.880Z,13.88
2023-05-08T08:29:28.513Z,13.94
2023-05-08T08:32:30.834Z,14.02
2023-05-08T08:35:33.229Z,14.10
2023-05-08T08:38:34.662Z,13.89
2023-05-08T08:41:36.199Z,13.93
2023-05-08T08:44:39.292Z,14.00
2023-05-08T08:47:44.830Z,14.26
2023-05-08T08:50:50.942Z,14.24
2023-05-08T08:54:03.106Z,14.14
2023-05-08T08:57:09.247Z,13.96
2023-05-08T09:00:12.107Z,14.10
2023-05-08T09:03:14.517Z,14.19
2023-05-08T09:06:17.122Z,14.19
2023-05-08T09:09:18.688Z,14.13
2023-05-08T09:12:20.162Z,14.02
2023-05-08T09:15:22.080Z,13.97
2023-05-08T09:18:23.623Z,14.31
2023-05-08T09:21:25.542Z,14.53
2023-05-08T09:24:55.941Z,14.76
2023-05-08T09:28:15.582Z,14.70
2023-05-08T09:31:17.290Z,14.54
2023-05-08T09:34:24.637Z,14.38
2023-05-08T09:37:27.320Z,14.35
2023-05-08T09:40:28.860Z,14.64
2023-05-08T09:43:30.460Z,14.76
2023-05-08T09:46:34.029Z,14.39
2023-05-08T09:49:35.495Z,14.50
2023-05-08T09:52:38.786Z,14.89
2023-05-08T09:55:47.646Z,15.09
2023-05-08T09:58:49.115Z,15.17
2023-05-08T10:01:50.998Z,15.07
2023-05-08T10:04:52.859Z,15.04
2023-05-08T10:07:54.510Z,15.21
2023-05-08T10:11:13.384Z,15.24
2023-05-08T10:14:14.835Z,14.86
2023-05-08T10:17:25.193Z,14.90
2023-05-08T10:20:30.144Z,14.92
2023-05-08T10:23:34.386Z,14.75
2023-05-08T10:26:53.642Z,14.90
2023-05-08T10:30:04.751Z,15.01
2023-05-08T10:33:10.371Z,15.21
2023-05-08T10:36:13.270Z,15.01
2023-05-08T10:39:16.962Z,14.97
2023-05-08T10:42:19.080Z,14.98
2023-05-08T10:45:20.698Z,15.15
2023-05-08T10:48:32.005Z,15.29
2023-05-08T10:51:55.240Z,15.44
2023-05-08T10:55:04.719Z,15.24
2023-05-08T10:58:13.208Z,14.95
2023-05-08T11:01:16.254Z,15.13
2023-05-08T11:04:28.550Z,15.06
2023-05-08T11:07:50.610Z,15.01
2023-05-08T11:11:06.198Z,14.82
2023-05-08T11:14:07.630Z,14.78
2023-05-08T11:17:10.109Z,14.83
2023-05-08T11:20:11.950Z,14.77
2023-05-08T11:23:33.134Z,14.77
2023-05-08T11:26:40.641Z,14.82
2023-05-08T11:29:42.574Z,14.84
2023-05-08T11:33:05.337Z,14.90
2023-05-08T11:36:07.162Z,15.01
2023-05-08T11:39:15.401Z,14.98
2023-05-08T11:42:26.733Z,15.01
2023-05-08T11:45:28.274Z,15.17
2023-05-08T11:48:30.495Z,15.11
2023-05-08T11:51:33.401Z,15.16
2023-05-08T11:54:34.883Z,15.18
2023-05-08T11:57:36.655Z,15.38
2023-05-08T12:00:46.116Z,15.32
2023-05-08T12:03:47.863Z,15.39
2023-05-08T12:06:51.274Z,15.34
2023-05-08T12:09:53.781Z,15.35
2023-05-08T12:12:55.247Z,15.58
2023-05-08T12:15:59.480Z,15.58
2023-05-08T12:19:01.068Z,15.69
2023-05-08T12:22:02.580Z,15.61
2023-05-08T12:25:06.275Z,15.79
2023-05-08T12:28:08.708Z,15.69
2023-05-08T12:31:10.404Z,15.85
2023-05-08T12:34:12.523Z,15.76
2023-05-08T12:37:24.009Z,15.82
2023-05-08T12:40:31.354Z,16.06
2023-05-08T12:43:35.418Z,16.19
2023-05-08T12:46:37.332Z,16.29
2023-05-08T12:49:38.841Z,16.30
2023-05-08T12:52:40.811Z,16.53
2023-05-08T12:55:52.769Z,16.49
2023-05-08T12:58:59.538Z,16.64
2023-05-08T13:02:01.172Z,16.91
2023-05-08T13:05:04.792Z,17.00
2023-05-08T13:08:09.806Z,17.06
2023-05-08T13:11:12.499Z,17.13
2023-05-08T13:14:14.032Z,17.12
2023-05-08T13:17:18.900Z,16.84
2023-05-08T13:20:20.505Z,17.15
2023-05-08T13:23:22.561Z,17.03
2023-05-08T13:26:25.510Z,17.10
2023-05-08T13:29:27.092Z,17.10
2023-05-08T13:32:28.651Z,17.30
2023-05-08T13:35:30.506Z,17.48
2023-05-08T13:38:32.086Z,17.42
2023-05-08T13:41:33.553Z,17.46
2023-05-08T13:44:35.045Z,17.10
2023-05-08T13:47:37.132Z,17.27
2023-05-08T13:50:38.648Z,17.63
2023-05-08T13:53:40.206Z,17.84
2023-05-08T13:56:41.805Z,17.86
2023-05-08T13:59:43.378Z,17.67
2023-05-08T14:02:45.306Z,17.55
2023-05-08T14:05:47.283Z,17.78
2023-05-08T14:08:51.407Z,17.94
2023-05-08T14:11:53.111Z,17.85
2023-05-08T14:14:54.573Z,17.72
2023-05-08T14:17:56.024Z,17.26
2023-05-08T14:20:57.851Z,17.30
2023-05-08T14:23:59.297Z,17.01
2023-05-08T14:27:05.479Z,17.21
2023-05-08T14:30:07.828Z,17.18
2023-05-08T14:33:09.329Z,17.18
2023-05-08T14:36:10.863Z,17.17
2023-05-08T14:39:12.340Z,17.07
2023-05-08T14:42:22.909Z,16.97
2023-05-08T14:45:24.993Z,17.18
2023-05-08T14:48:27.490Z,17.18
2023-05-08T14:51:28.942Z,17.01
2023-05-08T14:54:30.655Z,17.26
2023-05-08T14:57:32.318Z,17.05
2023-05-08T15:00:33.775Z,16.92
2023-05-08T15:03:35.440Z,17.02
2023-05-08T15:06:40.040Z,17.15
2023-05-08T15:09:41.486Z,17.05
2023-05-08T15:12:42.928Z,16.83
2023-05-08T15:15:44.344Z,16.99
2023-05-08T15:18:45.842Z,16.88
2023-05-08T15:21:47.293Z,16.93
2023-05-08T15:24:48.684Z,17.02
2023-05-08T15:27:52.564Z,16.80
2023-05-08T15:30:54.076Z,16.64
2023-05-08T15:33:55.627Z,16.73
2023-05-08T15:36:57.054Z,16.71
2023-05-08T15:39:58.647Z,16.71
2023-05-08T15:43:00.670Z,16.80
2023-05-08T15:46:02.237Z,16.85
2023-05-08T15:49:04.442Z,16.83
2023-05-08T15:52:05.883Z,16.78
2023-05-08T15:55:07.839Z,16.79
2023-05-08T15:58:09.283Z,16.64
2023-05-08T16:01:10.852Z,16.67
2023-05-08T16:04:12.864Z,16.66
2023-05-08T16:07:14.282Z,16.65
2023-05-08T16:10:15.898Z,16.40
2023-05-08T16:13:17.417Z,16.41
2023-05-08T16:16:18.934Z,16.39
2023-05-08T16:19:20.354Z,16.32
2023-05-08T16:22:23.129Z,16.23
2023-05-08T16:25:26.014Z,16.22
2023-05-08T16:28:27.497Z,16.20
2023-05-08T16:31:29.022Z,16.12
2023-05-08T16:34:30.577Z,16.20
2023-05-08T16:37:32.018Z,16.21
2023-05-08T16:40:33.494Z,16.18
2023-05-08T16:43:34.914Z,16.22
2023-05-08T16:46:36.412Z,16.17
2023-05-08T16:49:37.833Z,16.11
2023-05-08T16:52:39.261Z,16.03
2023-05-08T16:55:41.178Z,16.03
2023-05-08T16:58:43.235Z,16.04
2023-05-08T17:01:44.884Z,16.00
2023-05-08T17:04:49.764Z,15.91
2023-05-08T17:07:51.454Z,15.90
2023-05-08T17:10:54.083Z,15.95
2023-05-08T17:13:55.532Z,16.01
2023-05-08T17:16:57.019Z,16.00
2023-05-08T17:19:58.655Z,15.91
2023-05-08T17:23:00.800Z,15.79
2023-05-08T17:26:02.255Z,15.81
2023-05-08T17:29:03.864Z,15.85
2023-05-08T17:32:05.556Z,15.79
2023-05-08T17:35:07.494Z,15.76
2023-05-08T17:38:09.185Z,15.74
2023-05-08T17:41:10.667Z,15.64
2023-05-08T17:44:12.107Z,15.68
2023-05-08T17:47:13.605Z,15.66
2023-05-08T17:50:15.187Z,15.66
2023-05-08T17:53:16.828Z,15.66
2023-05-08T17:56:20.430Z,15.71
2023-05-08T17:59:21.966Z,15.68
2023-05-08T18:02:23.513Z,15.62
2023-05-08T18:05:25.240Z,15.59
2023-05-08T18:08:26.731Z,15.51
2023-05-08T18:11:28.218Z,15.46
2023-05-08T18:14:31.669Z,15.25
2023-05-08T18:17:33.311Z,15.24
2023-05-08T18:20:34.999Z,15.19
2023-05-08T18:23:36.774Z,15.27
2023-05-08T18:26:38.291Z,15.29
2023-05-08T18:29:39.904Z,15.23
2023-05-08T18:32:44.115Z,15.20
2023-05-08T18:35:46.053Z,15.15
2023-05-08T18:38:47.562Z,15.08
2023-05-08T18:41:50.119Z,14.99
2023-05-08T18:44:51.686Z,14.82
2023-05-08T18:47:56.422Z,14.72
2023-05-08T18:50:58.636Z,14.85
2023-05-08T18:54:00.669Z,14.92
2023-05-08T18:57:02.552Z,14.89
2023-05-08T19:00:05.235Z,14.82
2023-05-08T19:03:06.979Z,14.81
2023-05-08T19:06:15.021Z,14.80
2023-05-08T19:09:18.695Z,14.77
2023-05-08T19:12:20.192Z,14.74
2023-05-08T19:15:21.843Z,14.59
2023-05-08T19:18:24.301Z,14.42
2023-05-08T19:21:26.045Z,14.38
2023-05-08T19:24:29.968Z,14.47
2023-05-08T19:27:32.159Z,14.50
2023-05-08T19:30:39.263Z,14.54
2023-05-08T19:33:41.001Z,14.50
2023-05-08T19:36:42.658Z,14.36
2023-05-08T19:44:53.352Z,14.19
2023-05-08T19:47:58.271Z,13.94
2023-05-08T19:51:10.916Z,13.99
2023-05-08T19:54:13.301Z,13.98
2023-05-08T19:57:17.037Z,13.73
2023-05-08T20:00:28.809Z,13.54
2023-05-08T20:03:30.894Z,13.84
2023-05-08T20:06:32.939Z,13.94
2023-05-08T20:09:34.911Z,13.79
2023-05-08T20:12:50.214Z,13.74
2023-05-08T20:16:02.490Z,13.68
2023-05-08T20:19:04.617Z,13.41
2023-05-08T20:22:17.470Z,13.34
2023-05-08T20:25:22.538Z,13.37
2023-05-08T20:28:30.107Z,13.45
2023-05-08T20:31:34.956Z,13.25
2023-05-08T20:34:39.331Z,13.21
2023-05-08T20:37:50.506Z,13.12
2023-05-08T20:40:55.791Z,13.16
2023-05-08T20:44:02.682Z,13.47
2023-05-08T20:47:05.423Z,13.37
2023-05-08T20:50:08.650Z,13.46
2023-05-08T20:53:16.994Z,13.49
2023-05-08T20:56:20.095Z,13.51
2023-05-08T20:59:24.361Z,13.25
2023-05-08T21:02:26.888Z,12.94
2023-05-08T21:05:28.959Z,13.08
2023-05-08T21:08:31.304Z,13.09
2023-05-08T21:11:33.787Z,12.98
2023-05-08T21:14:36.838Z,12.98
2023-05-08T21:17:38.743Z,13.18
2023-05-08T21:20:40.679Z,13.00
2023-05-08T21:23:42.657Z,12.90
2023-05-08T21:26:44.236Z,12.77
2023-05-08T21:29:45.830Z,12.92
2023-05-08T21:32:47.419Z,12.94
2023-05-08T21:35:49.033Z,13.00
2023-05-08T21:38:51.953Z,13.06
2023-05-08T21:41:53.432Z,12.85
2023-05-08T21:44:55.230Z,13.03
2023-05-08T21:47:57.463Z,13.08
2023-05-08T21:50:59.407Z,13.14
2023-05-08T21:54:01.366Z,13.16
2023-05-08T21:57:02.911Z,13.02
2023-05-08T22:00:06.951Z,12.69
2023-05-08T22:03:08.689Z,12.51
2023-05-08T22:06:10.229Z,12.53
2023-05-08T22:09:11.954Z,12.60
2023-05-08T22:12:13.497Z,12.69
2023-05-08T22:15:28.531Z,13.00
2023-05-08T22:18:31.586Z,13.18
2023-05-08T22:21:33.058Z,13.15
2023-05-08T22:24:34.508Z,13.24
2023-05-08T22:27:36.017Z,13.17
2023-05-08T22:30:37.558Z,12.97
2023-05-08T22:33:39.136Z,12.93
2023-05-08T22:36:40.653Z,12.85
2023-05-08T22:39:42.133Z,13.04
2023-05-08T22:42:44.531Z,13.21
2023-05-08T22:45:46.076Z,13.16
2023-05-08T22:48:47.812Z,13.11
2023-05-08T22:51:50.968Z,13.09
2023-05-08T22:54:52.687Z,13.05
2023-05-08T22:57:54.162Z,12.99
2023-05-08T23:00:55.863Z,12.83
2023-05-08T23:03:57.535Z,12.72
2023-05-08T23:06:59.062Z,12.86
2023-05-08T23:10:00.642Z,12.97
2023-05-08T23:13:02.208Z,12.92
2023-05-08T23:16:03.980Z,13.12
2023-05-08T23:19:05.489Z,13.06
2023-05-08T23:22:06.944Z,12.85
2023-05-08T23:25:12.274Z,12.68
2023-05-08T23:28:14.177Z,12.75
2023-05-08T23:31:16.915Z,12.70
2023-05-08T23:34:18.417Z,12.83
2023-05-08T23:37:19.918Z,12.98
2023-05-08T23:40:21.436Z,12.93
2023-05-08T23:43:22.993Z,12.67
2023-05-08T23:46:24.826Z,12.67
2023-05-08T23:49:26.435Z,12.65
2023-05-08T23:52:27.972Z,12.69
2023-05-08T23:55:29.951Z,12.41
2023-05-08T23:58:31.520Z,12.27
